Time;durP1;ratioP1;P1;durP2;ratioP2;P2;SDS_P1;SDS_P2;PMS_P1;PMS_P2;Temp;Humidity;BMP_temperature;BMP_pressure;BME280_temperature;BME280_humidity;BME280_pressure;Samples;Min_cycle;Max_cycle;Signal;HPM_P1;HPM_P2
2022/07/10 09:39:11;;;;;;;5.63;3.22;;;;;;;27.11;48.09;99921.03;4936912;28;20171;-90
2022/07/10 09:41:37;;;;;;;5.25;3.58;;;;;;;26.71;48.98;99907.53;4967990;28;20040;-91
2022/07/10 09:44:06;;;;;;;8.15;3.80;;;;;;;26.98;48.69;99910.06;4936545;29;20150;-91
2022/07/10 09:46:39;;;;;;;4.32;3.33;;;;;;;26.91;47.62;99922.69;4952538;29;20028;-91
2022/07/10 09:49:15;;;;;;;8.70;3.05;;;;;;;26.64;49.37;99921.94;4953903;29;20027;-90
2022/07/10 09:51:42;;;;;;;6.45;3.30;;;;;;;26.50;50.07;99930.41;4936323;29;20038;-91
2022/07/10 09:54:09;;;;;;;6.30;3.47;;;;;;;26.46;50.21;99934.09;4971078;28;20114;-91
2022/07/10 09:56:50;;;;;;;8.75;3.60;;;;;;;26.37;50.20;99931.78;4956415;29;20035;-88
2022/07/10 09:59:18;;;;;;;4.53;3.50;;;;;;;26.38;48.05;99936.16;4938683;29;20498;-86
2022/07/10 10:01:48;;;;;;;5.55;3.30;;;;;;;26.63;48.00;99928.16;4969495;28;20086;-88
2022/07/10 10:04:17;;;;;;;6.88;3.65;;;;;;;27.03;49.52;99933.69;4954021;29;20038;-89
2022/07/10 10:06:45;;;;;;;4.45;3.30;;;;;;;27.13;46.41;99935.06;4968063;28;20035;-86
2022/07/10 10:09:23;;;;;;;6.65;3.50;;;;;;;26.80;46.40;99924.88;4951861;29;20027;-86
2022/07/10 10:11:51;;;;;;;6.20;3.17;;;;;;;26.70;51.40;99915.56;4935885;29;20147;-86
2022/07/10 10:14:20;;;;;;;6.13;3.30;;;;;;;26.77;49.36;99914.44;4936037;29;20081;-87
2022/07/10 10:16:46;;;;;;;3.92;3.38;;;;;;;26.61;48.77;99872.63;4935875;29;20031;-86
2022/07/10 10:21:58;;;;;;;4.40;3.33;;;;;;;27.17;45.87;99862.47;4953041;29;20114;-86
2022/07/10 10:24:25;;;;;;;6.13;2.92;;;;;;;27.53;45.67;99898.13;4935757;29;20027;-86
2022/07/10 10:26:51;;;;;;;7.78;3.30;;;;;;;27.24;46.69;99878.97;4935823;29;20063;-85
2022/07/10 10:29:17;;;;;;;5.80;3.58;;;;;;;27.41;48.24;99920.72;4935491;29;20023;-89
2022/07/10 10:31:43;;;;;;;5.47;3.08;;;;;;;26.96;47.69;99907.47;4935632;29;20094;-87
2022/07/10 10:34:09;;;;;;;4.93;3.47;;;;;;;26.67;47.77;99910.38;4935807;29;20035;-87
2022/07/10 10:36:41;;;;;;;5.65;3.40;;;;;;;26.86;48.55;99924.66;4935792;29;20046;-88
2022/07/10 10:39:16;;;;;;;7.93;3.13;;;;;;;26.56;46.97;99873.75;4967675;28;20110;-89
2022/07/10 10:41:49;;;;;;;16.45;4.00;;;;;;;25.96;48.76;99814.19;4953280;28;20027;-88
2022/07/10 10:44:16;;;;;;;18.73;3.75;;;;;;;26.55;49.79;99919.66;4935664;29;20044;-91
2022/07/10 10:46:50;;;;;;;10.57;3.17;;;;;;;26.51;49.48;99910.97;4967618;28;20501;-87
2022/07/10 10:49:18;;;;;;;11.32;3.10;;;;;;;26.50;50.49;99900.44;4967715;28;20570;-89
2022/07/10 10:52:00;;;;;;;10.07;3.30;;;;;;;26.08;50.31;99904.63;4953529;28;20027;-87
2022/07/10 10:54:26;;;;;;;15.43;3.45;;;;;;;26.25;50.98;99907.50;4957211;29;20031;-88
2022/07/10 10:57:30;;;;;;;6.80;3.33;;;;;;;26.38;49.29;99926.47;4939361;29;20475;-87
2022/07/10 10:59:56;;;;;;;6.88;3.28;;;;;;;26.11;50.25;99907.16;4896806;29;20044;-84
2022/07/10 11:02:24;;;;;;;6.53;3.45;;;;;;;26.23;50.70;99917.31;4896720;29;20044;-86
2022/07/10 11:04:49;;;;;;;7.68;3.20;;;;;;;26.05;50.49;99902.91;4896842;29;20048;-88
2022/07/10 11:44:44;;;;;;;3.53;3.08;;;;;;;26.41;51.24;99899.88;4942252;28;20054;-88
2022/07/10 11:47:11;;;;;;;3.83;3.25;;;;;;;26.26;48.08;99866.91;4971046;28;20035;-90
2022/07/10 11:49:45;;;;;;;5.55;3.20;;;;;;;26.43;47.75;99894.50;4938870;29;20119;-87
2022/07/10 11:52:10;;;;;;;3.63;3.00;;;;;;;26.42;50.30;99863.69;4970774;28;20142;-87
2022/07/10 11:54:38;;;;;;;4.88;3.30;;;;;;;25.88;48.50;99775.75;4938896;29;20541;-86
2022/07/10 11:57:08;;;;;;;3.83;3.22;;;;;;;26.58;47.24;99893.06;4938700;29;20043;-85
2022/07/10 11:59:33;;;;;;;6.95;2.83;;;;;;;26.26;47.24;99837.78;4938976;29;20059;-85
2022/07/10 12:01:59;;;;;;;5.20;3.20;;;;;;;26.77;47.66;99895.91;4938714;29;20066;-87
2022/07/10 12:04:26;;;;;;;6.90;3.08;;;;;;;26.69;47.44;99847.63;4953723;28;20038;-87
2022/07/10 12:06:53;;;;;;;3.88;2.90;;;;;;;27.15;44.80;99889.97;4954052;28;20038;-86
2022/07/10 12:09:22;;;;;;;8.40;2.85;;;;;;;27.18;46.44;99844.78;4970156;28;20058;-87
2022/07/10 12:12:02;;;;;;;8.90;3.40;;;;;;;27.80;44.08;99880.13;4937932;28;20049;-86
2022/07/10 12:14:28;;;;;;;9.15;3.47;;;;;;;27.70;46.29;99882.34;4937926;29;20034;-87
2022/07/10 12:16:55;;;;;;;4.90;3.13;;;;;;;27.92;44.35;99884.91;4954996;28;20113;-88
2022/07/10 12:19:24;;;;;;;4.43;2.95;;;;;;;27.60;44.28;99859.81;4969980;28;20098;-87
2022/07/10 12:21:51;;;;;;;3.92;2.83;;;;;;;27.70;43.48;99876.19;4937838;29;20397;-87
2022/07/10 12:24:19;;;;;;;4.28;2.95;;;;;;;27.84;43.53;99870.25;4927327;29;20034;-85
2022/07/10 12:26:46;;;;;;;4.82;2.90;;;;;;;28.12;43.65;99880.53;4918742;29;20454;-87
2022/07/10 12:29:19;;;;;;;7.00;3.00;;;;;;;28.16;43.62;99879.44;4918827;29;20123;-87
2022/07/10 12:31:46;;;;;;;7.10;3.08;;;;;;;27.73;42.11;99861.00;4950632;29;20035;-84
2022/07/10 12:34:13;;;;;;;6.72;2.88;;;;;;;27.93;42.08;99867.22;4918664;29;20499;-86
2022/07/10 12:36:52;;;;;;;6.75;3.10;;;;;;;28.17;42.43;99865.25;4935717;29;20036;-86
2022/07/10 12:39:22;;;;;;;6.28;3.00;;;;;;;28.01;45.79;99866.84;4950261;28;20035;-86
2022/07/10 12:42:02;;;;;;;5.03;3.08;;;;;;;28.16;42.03;99876.78;4918535;29;20071;-89
2022/07/10 12:44:33;;;;;;;6.85;3.10;;;;;;;28.23;43.21;99864.97;4935740;29;20055;-88
2022/07/10 12:47:08;;;;;;;3.80;3.03;;;;;;;27.86;43.66;99871.91;4934050;29;20094;-86
2022/07/10 12:50:06;;;;;;;6.45;2.85;;;;;;;27.62;43.41;99873.00;4935599;29;20089;-89
2022/07/10 12:52:37;;;;;;;6.75;3.38;;;;;;;27.33;42.88;99830.00;4935864;29;20401;-88
2022/07/10 12:55:18;;;;;;;6.00;3.28;;;;;;;27.60;43.73;99871.28;4935656;29;20036;-87
2022/07/10 12:57:53;;;;;;;3.70;3.28;;;;;;;27.40;42.44;99868.63;4918204;29;20479;-85
2022/07/10 13:00:28;;;;;;;5.05;3.03;;;;;;;27.41;43.74;99859.75;4949957;29;20148;-87
2022/07/10 13:03:04;;;;;;;4.30;3.28;;;;;;;27.39;43.29;99853.59;4933860;29;20038;-86
2022/07/10 13:05:38;;;;;;;7.75;3.17;;;;;;;27.06;44.04;99827.63;4918085;29;20471;-87
2022/07/10 13:08:16;;;;;;;3.55;2.83;;;;;;;26.91;44.07;99855.59;4949997;29;20031;-85
2022/07/10 13:10:48;;;;;;;5.97;3.40;;;;;;;27.16;46.45;99860.75;4935259;29;20094;-85
2022/07/10 13:13:14;;;;;;;6.88;4.75;;;;;;;27.08;46.96;99862.88;4917950;29;20790;-86
2022/07/10 13:15:44;;;;;;;7.70;5.10;;;;;;;26.93;47.39;99864.34;4917046;29;20067;-87
2022/07/10 13:18:17;;;;;;;8.70;5.60;;;;;;;26.60;47.82;99832.97;4949656;29;20117;-86
2022/07/10 13:20:48;;;;;;;6.18;5.32;;;;;;;26.50;48.54;99823.69;4934739;29;20031;-87
2022/07/10 13:23:14;;;;;;;7.57;5.97;;;;;;;26.76;49.80;99865.03;4919997;29;20039;-90
2022/07/10 13:25:42;;;;;;;6.45;5.75;;;;;;;26.74;51.21;99850.97;4933521;29;20522;-90
2022/07/10 13:28:11;;;;;;;10.83;5.67;;;;;;;26.69;49.18;99824.66;4917727;29;20027;-89
2022/07/10 13:30:36;;;;;;;6.32;5.72;;;;;;;27.05;49.00;99855.88;4949402;28;20591;-91
2022/07/10 13:33:03;;;;;;;9.45;6.28;;;;;;;27.02;50.11;99834.84;4917417;29;20149;-90
2022/07/10 13:35:29;;;;;;;6.28;5.68;;;;;;;27.11;48.54;99858.28;4917327;29;20036;-86
2022/07/10 13:37:56;;;;;;;8.60;5.47;;;;;;;27.06;48.91;99836.41;4934796;29;20095;-88
2022/07/10 13:40:21;;;;;;;9.90;5.63;;;;;;;26.94;50.66;99835.16;4917351;29;20062;-86
2022/07/10 13:42:46;;;;;;;7.25;6.10;;;;;;;26.76;50.03;99788.25;4917414;29;20054;-86
2022/07/10 13:45:12;;;;;;;6.70;5.50;;;;;;;27.01;49.87;99845.50;4917041;29;20106;-88
2022/07/10 13:47:37;;;;;;;7.90;6.07;;;;;;;26.96;50.23;99846.53;4949065;29;20027;-86
2022/07/10 13:50:03;;;;;;;8.25;5.10;;;;;;;26.96;48.92;99829.78;4917375;29;20039;-90
2022/07/10 13:52:29;;;;;;;6.75;6.05;;;;;;;26.88;50.38;99835.41;4950834;28;20035;-85
2022/07/10 13:54:54;;;;;;;7.90;5.70;;;;;;;26.77;50.58;99800.56;4934796;29;20039;-85
2022/07/10 13:57:20;;;;;;;6.32;5.55;;;;;;;27.04;51.49;99851.53;4934916;29;20086;-85
2022/07/10 13:59:45;;;;;;;6.43;5.45;;;;;;;27.09;49.70;99824.81;4950819;29;20462;-89
2022/07/10 14:02:12;;;;;;;9.32;5.22;;;;;;;27.19;49.80;99841.19;4966455;28;20043;-86
2022/07/10 14:04:38;;;;;;;9.10;7.50;;;;;;;27.01;49.29;99803.13;4950811;29;20035;-86
2022/07/10 14:07:04;;;;;;;9.48;4.15;;;;;;;27.07;47.53;99851.41;4950727;29;20070;-88
2022/07/10 14:09:29;;;;;;;7.90;4.80;;;;;;;27.03;49.81;99843.63;4950578;29;20039;-87
2022/07/10 14:11:55;;;;;;;5.07;4.53;;;;;;;27.06;48.59;99847.00;4950549;29;20083;-87
2022/07/10 14:14:22;;;;;;;5.72;5.03;;;;;;;27.10;50.19;99835.38;4950727;29;20038;-85
2022/07/10 14:16:49;;;;;;;6.78;4.60;;;;;;;27.22;48.56;99844.59;4950755;29;20027;-83
2022/07/10 14:19:15;;;;;;;7.40;4.68;;;;;;;27.01;48.36;99819.00;4934536;29;20039;-85
2022/07/10 14:21:42;;;;;;;8.98;5.32;;;;;;;27.22;49.25;99844.59;4950613;29;20035;-86
2022/07/10 14:24:08;;;;;;;6.88;4.88;;;;;;;27.24;48.21;99839.22;4924889;29;20047;-86
2022/07/10 14:26:35;;;;;;;6.68;5.35;;;;;;;27.31;50.01;99840.69;4934206;29;20494;-86
2022/07/10 14:29:03;;;;;;;6.53;5.68;;;;;;;27.41;49.94;99830.59;4934024;29;20419;-85
2022/07/10 14:31:29;;;;;;;6.03;4.82;;;;;;;27.48;49.38;99816.16;4934023;29;20031;-85
2022/07/10 14:33:54;;;;;;;5.72;4.90;;;;;;;28.00;48.46;99825.31;4916673;29;20034;-87
2022/07/10 14:36:22;;;;;;;5.32;4.82;;;;;;;27.93;48.69;99798.22;4933693;29;20031;-86
2022/07/10 14:38:48;;;;;;;6.32;5.00;;;;;;;28.24;47.79;99839.31;4916649;29;20034;-86
2022/07/10 14:41:13;;;;;;;5.22;4.72;;;;;;;28.33;46.74;99832.69;4916552;29;20031;-88
2022/07/10 14:43:40;;;;;;;6.53;4.38;;;;;;;28.34;45.49;99851.19;4930822;29;20044;-88
2022/07/10 14:46:06;;;;;;;7.28;4.65;;;;;;;27.63;45.86;99843.78;4931107;29;20489;-87
2022/07/10 14:48:32;;;;;;;9.68;4.63;;;;;;;27.40;46.74;99831.50;4947106;29;20047;-86
2022/07/10 14:50:58;;;;;;;6.22;5.20;;;;;;;27.35;47.10;99767.22;4931152;29;20414;-88
2022/07/10 14:53:24;;;;;;;5.72;4.15;;;;;;;28.07;45.26;99838.28;4931346;29;20048;-88
2022/07/10 14:55:49;;;;;;;6.15;4.20;;;;;;;28.07;44.37;99810.88;4917576;29;20624;-87
2022/07/10 14:58:15;;;;;;;5.95;3.95;;;;;;;28.39;43.80;99833.25;4920553;29;20567;-87
2022/07/10 15:00:41;;;;;;;4.47;3.83;;;;;;;28.59;43.76;99831.44;4921183;29;20040;-89
2022/07/10 15:03:07;;;;;;;6.35;4.15;;;;;;;28.60;43.90;99817.25;4916923;29;20126;-86
2022/07/10 15:05:33;;;;;;;6.55;4.35;;;;;;;28.42;42.79;99821.63;4916348;29;20032;-88
2022/07/10 15:08:00;;;;;;;4.25;3.85;;;;;;;28.25;43.20;99814.47;4915798;29;20112;-88
2022/07/10 15:10:25;;;;;;;5.95;4.20;;;;;;;28.51;43.80;99821.22;4915274;29;20115;-88
2022/07/10 15:12:51;;;;;;;6.63;3.70;;;;;;;28.67;41.75;99831.06;4930932;29;20059;-86
2022/07/10 15:15:17;;;;;;;5.88;3.90;;;;;;;28.85;43.62;99824.91;4946836;28;20039;-88
2022/07/10 15:17:43;;;;;;;6.03;3.70;;;;;;;28.79;40.64;99787.16;4914929;29;20027;-87
2022/07/10 15:20:10;;;;;;;4.97;3.85;;;;;;;29.20;41.84;99834.69;4915213;29;20036;-86
2022/07/10 15:22:35;;;;;;;5.07;3.38;;;;;;;29.22;40.55;99800.91;4931945;29;20103;-87
2022/07/10 15:25:01;;;;;;;5.18;3.97;;;;;;;29.46;39.59;99820.09;4947904;29;20554;-87
2022/07/10 15:27:26;;;;;;;5.25;3.80;;;;;;;29.51;39.91;99826.03;4933447;29;20036;-85
2022/07/10 15:29:55;;;;;;;5.07;4.00;;;;;;;29.64;39.65;99828.88;4947981;29;20059;-87
2022/07/10 15:32:21;;;;;;;7.60;3.87;;;;;;;29.54;39.11;99817.03;4916113;29;20127;-87
2022/07/10 15:34:48;;;;;;;4.30;3.90;;;;;;;29.53;38.92;99804.66;4947994;29;20268;-88
2022/07/10 15:37:14;;;;;;;5.65;4.15;;;;;;;29.64;38.37;99820.06;4916050;29;20466;-87
2022/07/10 15:39:43;;;;;;;6.25;4.15;;;;;;;29.70;38.33;99817.06;4935086;29;20039;-85
2022/07/10 15:42:11;;;;;;;8.23;4.75;;;;;;;29.75;41.20;99827.47;4935196;29;20031;-85
2022/07/10 15:44:38;;;;;;;8.10;4.53;;;;;;;29.76;40.84;99827.38;4932033;29;20059;-87
2022/07/10 15:47:04;;;;;;;4.70;3.65;;;;;;;29.37;38.47;99778.88;4932214;29;20047;-86
2022/07/10 15:49:30;;;;;;;6.57;3.85;;;;;;;29.51;38.53;99811.88;4934070;29;20075;-86
2022/07/10 15:51:56;;;;;;;6.07;3.85;;;;;;;29.54;38.54;99830.31;4918062;29;20040;-86
2022/07/10 15:54:22;;;;;;;4.40;3.75;;;;;;;29.53;39.02;99828.59;4933842;29;20050;-86
2022/07/10 15:56:47;;;;;;;4.38;3.63;;;;;;;29.16;39.88;99791.47;4933761;29;20041;-86
2022/07/10 15:59:13;;;;;;;7.68;4.10;;;;;;;29.23;41.35;99828.34;4933790;29;20087;-85
2022/07/10 16:01:38;;;;;;;6.97;3.70;;;;;;;29.08;40.76;99841.47;4933906;29;20042;-85
2022/07/10 16:04:04;;;;;;;9.52;3.40;;;;;;;28.80;39.81;99839.31;4917818;29;20047;-88
2022/07/10 16:06:29;;;;;;;7.15;3.00;;;;;;;28.31;41.46;99830.09;4933605;29;20032;-87
2022/07/10 16:08:55;;;;;;;9.50;2.70;;;;;;;27.54;41.22;99788.47;4917636;29;20040;-87
2022/07/10 16:11:24;;;;;;;8.15;2.95;;;;;;;27.17;42.03;99833.31;4933636;29;20098;-88
2022/07/10 16:13:49;;;;;;;5.77;2.53;;;;;;;26.83;43.04;99826.78;4917739;29;20070;-85
2022/07/10 16:16:15;;;;;;;3.83;2.53;;;;;;;26.80;43.35;99861.34;4917690;29;20071;-89
2022/07/10 16:18:40;;;;;;;4.00;2.28;;;;;;;26.49;44.41;99833.38;4933350;29;20028;-88
2022/07/10 16:21:06;;;;;;;7.65;2.42;;;;;;;26.37;44.38;99857.69;4933256;29;20063;-90
2022/07/10 16:23:31;;;;;;;3.75;2.53;;;;;;;26.25;45.55;99861.69;4933114;28;20647;-90
2022/07/10 16:25:59;;;;;;;3.42;2.47;;;;;;;26.11;46.95;99847.19;4918182;29;20563;-88
2022/07/10 16:28:25;;;;;;;3.88;2.65;;;;;;;25.71;46.87;99819.53;4919800;29;20035;-87
2022/07/10 16:30:51;;;;;;;3.70;2.75;;;;;;;25.53;46.92;99813.13;4971557;28;20237;-90
2022/07/10 16:33:16;;;;;;;4.03;2.53;;;;;;;25.72;47.34;99841.53;4955520;28;20453;-88
2022/07/10 16:35:42;;;;;;;3.88;2.72;;;;;;;25.85;47.04;99898.34;4955238;28;20597;-89
2022/07/10 16:38:08;;;;;;;4.47;2.70;;;;;;;25.80;47.89;99924.09;4955312;28;20057;-89
2022/07/10 16:40:34;;;;;;;4.28;2.45;;;;;;;25.62;48.84;99909.72;4971557;28;20101;-89
2022/07/10 16:42:59;;;;;;;5.13;3.13;;;;;;;25.45;48.95;99905.88;4939276;28;20035;-87
2022/07/10 16:45:25;;;;;;;5.72;2.67;;;;;;;25.57;49.00;99938.97;4955112;28;20079;-90
2022/07/10 16:47:54;;;;;;;7.43;3.25;;;;;;;25.36;50.61;99951.09;4955265;28;20572;-87
2022/07/10 16:50:21;;;;;;;17.48;3.92;;;;;;;24.87;56.46;99985.19;4970248;28;20066;-88
2022/07/10 16:52:47;;;;;;;10.68;4.53;;;;;;;23.93;64.44;100000.97;4924992;28;20483;-84
2022/07/10 16:55:13;;;;;;;7.35;4.88;;;;;;;23.42;66.73;100005.69;4916891;29;20043;-88
2022/07/10 16:57:39;;;;;;;7.28;4.47;;;;;;;22.78;70.99;100000.94;4932866;29;20139;-86
2022/07/10 17:00:07;;;;;;;17.85;12.65;;;;;;;22.55;74.13;100033.81;4932715;28;20123;-87
2022/07/10 17:02:33;;;;;;;18.00;16.13;;;;;;;22.36;77.72;100028.03;4930532;29;20091;-85
2022/07/10 17:04:59;;;;;;;14.27;10.32;;;;;;;22.18;78.03;99983.66;4946961;29;20036;-87
2022/07/10 17:07:24;;;;;;;11.18;7.93;;;;;;;21.90;81.86;99976.28;4930729;29;20031;-88
2022/07/10 17:09:50;;;;;;;11.02;5.97;;;;;;;22.16;83.33;100019.63;4915039;29;20032;-88
2022/07/10 17:12:15;;;;;;;13.05;8.45;;;;;;;22.20;85.20;100016.06;4916237;29;20028;-86
2022/07/10 17:14:41;;;;;;;8.38;6.63;;;;;;;22.08;85.66;100014.50;4930551;28;20036;-80
2022/07/10 17:17:07;;;;;;;8.82;4.55;;;;;;;21.95;85.49;100019.13;4916031;29;20468;-80
2022/07/10 17:19:32;;;;;;;9.88;5.05;;;;;;;21.97;86.99;100028.72;4916156;29;20063;-80
2022/07/10 17:21:58;;;;;;;9.27;5.13;;;;;;;21.82;88.32;100031.59;4930392;28;20036;-80
2022/07/10 17:24:23;;;;;;;8.43;5.30;;;;;;;21.80;89.36;100046.53;4915860;29;20051;-81
2022/07/10 17:26:49;;;;;;;9.55;5.15;;;;;;;21.85;93.52;100035.94;4915680;29;20043;-80
2022/07/10 17:29:14;;;;;;;7.82;4.97;;;;;;;21.87;90.67;100035.03;4914444;29;20039;-80
2022/07/10 17:31:41;;;;;;;8.02;4.30;;;;;;;21.31;91.96;99971.97;4915989;29;20111;-79
2022/07/10 17:34:07;;;;;;;5.43;4.00;;;;;;;21.58;88.44;100027.59;4916035;29;20419;-79
2022/07/10 17:36:32;;;;;;;5.95;4.43;;;;;;;21.27;86.75;99997.41;4915789;29;20032;-80
2022/07/10 17:38:58;;;;;;;7.38;4.28;;;;;;;21.30;89.33;100014.88;4915955;29;20036;-81
2022/07/10 17:41:23;;;;;;;5.70;4.40;;;;;;;21.30;89.58;100012.25;4915698;29;20067;-81
2022/07/10 17:43:49;;;;;;;9.75;5.03;;;;;;;21.39;91.00;100022.59;4915450;29;20032;-80
2022/07/10 17:46:14;;;;;;;8.40;4.43;;;;;;;21.41;91.30;100002.44;4917283;29;20091;-80
2022/07/10 17:48:40;;;;;;;8.63;5.18;;;;;;;21.62;90.79;100013.50;4934674;29;20062;-79
2022/07/10 17:51:06;;;;;;;8.05;5.13;;;;;;;21.70;91.96;99995.88;4934660;29;20024;-81
2022/07/10 17:53:31;;;;;;;8.27;4.75;;;;;;;21.96;90.84;100019.09;4934800;29;20454;-80
2022/07/10 17:55:57;;;;;;;6.13;5.03;;;;;;;22.10;89.63;100013.56;4934251;29;20518;-81
2022/07/10 17:58:23;;;;;;;8.18;4.93;;;;;;;22.20;89.05;100016.91;4934179;29;20028;-81
2022/07/10 18:00:49;;;;;;;8.32;5.03;;;;;;;22.39;88.97;100020.13;4934149;29;20030;-81
2022/07/10 18:03:15;;;;;;;6.78;5.45;;;;;;;22.27;86.91;99980.88;4969724;28;20038;-80
2022/07/10 18:05:45;;;;;;;6.05;5.03;;;;;;;22.46;86.39;100013.81;4970068;28;20054;-81
2022/07/10 18:08:12;;;;;;;13.48;6.18;;;;;;;22.38;86.88;99997.34;4969765;28;20047;-81
2022/07/10 18:10:38;;;;;;;44.20;11.30;;;;;;;22.13;85.60;99982.00;4953778;28;20487;-81
2022/07/10 18:13:04;;;;;;;9.93;5.20;;;;;;;21.12;92.50;100048.34;4969864;28;20051;-83
2022/07/10 18:15:33;;;;;;;7.18;5.00;;;;;;;20.51;95.55;100065.63;4970167;28;20494;-81
2022/07/10 18:17:58;;;;;;;8.35;4.78;;;;;;;20.19;94.43;100058.97;4970012;28;20050;-85
2022/07/10 18:20:24;;;;;;;7.30;4.43;;;;;;;20.43;94.54;100047.38;4953574;28;20583;-82
2022/07/10 18:22:50;;;;;;;5.82;4.80;;;;;;;20.70;93.51;100053.22;4969585;28;20530;-82
2022/07/10 18:25:16;;;;;;;5.90;4.70;;;;;;;20.72;92.55;100088.19;4954261;28;20027;-82
2022/07/10 18:27:41;;;;;;;4.75;4.05;;;;;;;20.52;91.01;100047.28;4970494;28;20553;-82
2022/07/10 18:30:08;;;;;;;5.10;4.50;;;;;;;21.02;89.12;100059.84;4970224;28;20026;-83
2022/07/10 18:35:18;;;;;;;5.60;4.55;;;;;;;20.96;90.30;100073.94;4936443;28;20095;-84
2022/07/10 18:37:44;;;;;;;6.78;5.15;;;;;;;20.84;90.76;100035.56;4932476;29;20044;-84
2022/07/10 18:40:10;;;;;;;6.10;5.50;;;;;;;21.05;92.25;100078.19;4916725;29;20073;-82
2022/07/10 18:42:36;;;;;;;6.97;5.85;;;;;;;20.73;92.63;100021.72;4916560;29;20152;-81
2022/07/10 18:45:02;;;;;;;7.28;5.50;;;;;;;21.23;93.06;100066.56;4933942;29;20075;-80
2022/07/10 18:47:27;;;;;;;6.60;5.82;;;;;;;21.12;91.44;100005.47;4933595;29;20095;-82
2022/07/10 18:49:53;;;;;;;6.55;5.90;;;;;;;21.37;91.05;100020.88;4933693;29;20846;-82
2022/07/10 18:52:18;;;;;;;8.90;5.97;;;;;;;21.68;91.61;100038.84;4933655;29;20036;-81
2022/07/10 18:54:43;;;;;;;6.05;5.45;;;;;;;21.73;90.80;100043.13;4932411;29;20042;-82
2022/07/10 18:57:10;;;;;;;5.80;5.20;;;;;;;21.96;89.81;100069.03;4916594;29;20059;-81
2022/07/10 18:59:36;;;;;;;8.77;5.93;;;;;;;21.75;90.68;100033.44;4932283;29;20031;-80
2022/07/10 19:02:02;;;;;;;7.80;5.90;;;;;;;22.03;90.10;100075.06;4933685;29;20126;-82
2022/07/10 19:04:28;;;;;;;8.63;6.35;;;;;;;22.07;90.97;100076.75;4916170;29;20126;-82
2022/07/10 19:06:53;;;;;;;6.30;5.50;;;;;;;22.06;90.03;100077.63;4933577;29;20046;-82
2022/07/10 19:09:19;;;;;;;7.55;6.30;;;;;;;21.86;90.47;100079.69;4933540;29;20031;-80
2022/07/10 19:11:44;;;;;;;8.25;6.60;;;;;;;21.81;91.42;100100.81;4933312;29;20032;-80
2022/07/10 19:14:11;;;;;;;9.30;6.72;;;;;;;21.57;91.67;100033.75;4936231;29;20257;-80
2022/07/10 19:16:37;;;;;;;7.40;5.85;;;;;;;21.61;91.74;100048.59;4937361;29;20032;-81
2022/07/10 19:19:02;;;;;;;7.70;6.95;;;;;;;21.12;93.84;100014.25;4937275;29;20038;-80
2022/07/10 19:21:28;;;;;;;7.88;7.07;;;;;;;20.93;95.93;100023.25;4920124;29;20102;-79
2022/07/10 19:23:53;;;;;;;7.55;6.80;;;;;;;21.22;96.29;100077.09;4951879;29;20042;-81
2022/07/10 19:26:20;;;;;;;7.82;6.75;;;;;;;21.28;95.92;100080.53;4950355;28;20074;-81
2022/07/10 19:28:47;;;;;;;6.43;5.82;;;;;;;21.05;95.24;100011.69;4934513;29;20134;-80
2022/07/10 19:31:12;;;;;;;7.68;6.68;;;;;;;21.49;94.83;100081.09;4934324;29;20040;-80
2022/07/10 19:33:39;;;;;;;7.10;6.40;;;;;;;21.62;94.43;100087.06;4934578;29;20403;-80
2022/07/10 19:36:05;;;;;;;7.93;6.05;;;;;;;21.64;93.23;100080.91;4934469;29;20537;-79
2022/07/10 19:38:31;;;;;;;6.70;6.00;;;;;;;21.58;92.04;100064.38;4934328;29;20043;-80
2022/07/10 19:40:57;;;;;;;7.82;5.97;;;;;;;21.77;90.93;100086.84;4934277;29;20624;-81
2022/07/10 19:43:22;;;;;;;6.55;5.80;;;;;;;21.83;91.21;100071.88;4950336;29;20043;-80
2022/07/10 19:45:48;;;;;;;6.60;5.78;;;;;;;21.78;90.01;100070.19;4934136;29;20043;-80
2022/07/10 19:48:13;;;;;;;6.50;5.90;;;;;;;21.89;90.97;100093.66;4934282;29;20492;-80
2022/07/10 19:50:39;;;;;;;7.03;5.95;;;;;;;22.00;91.06;100087.38;4934597;29;20023;-81
2022/07/10 19:53:05;;;;;;;6.35;5.57;;;;;;;22.09;90.88;100095.09;4950044;29;20039;-81
2022/07/10 19:55:30;;;;;;;8.13;5.53;;;;;;;22.08;90.13;100089.00;4933929;29;20035;-82
2022/07/10 19:57:57;;;;;;;6.90;6.07;;;;;;;21.61;91.81;100030.19;4972388;28;20049;-79
2022/07/10 20:00:23;;;;;;;6.68;5.93;;;;;;;21.83;91.11;100106.91;4976672;28;20171;-80
2022/07/10 20:02:49;;;;;;;6.93;6.15;;;;;;;21.67;91.66;100106.28;4983166;28;20122;-81
2022/07/10 20:05:15;;;;;;;6.47;5.88;;;;;;;21.55;94.01;100091.53;4983968;28;20038;-80
2022/07/10 20:07:40;;;;;;;6.97;6.03;;;;;;;21.32;94.88;100094.44;4972652;28;20118;-80
2022/07/10 20:10:07;;;;;;;9.00;6.85;;;;;;;21.39;96.44;100116.28;4973637;28;20037;-81
2022/07/10 20:12:34;;;;;;;7.88;6.68;;;;;;;21.34;97.15;100100.56;4975625;28;20078;-79
2022/07/10 20:15:01;;;;;;;11.38;6.82;;;;;;;21.15;96.58;100082.44;4954462;28;20035;-79
2022/07/10 20:17:27;;;;;;;8.15;7.25;;;;;;;21.14;97.55;100091.19;4956195;28;20125;-79
2022/07/10 20:19:52;;;;;;;7.80;7.05;;;;;;;21.16;98.92;100127.94;4955827;28;20089;-80
2022/07/10 20:22:18;;;;;;;8.23;7.43;;;;;;;21.12;99.31;100140.22;4971733;28;20085;-81
2022/07/10 20:24:43;;;;;;;10.90;8.13;;;;;;;21.15;99.53;100128.81;4972143;28;20030;-81
2022/07/10 20:27:09;;;;;;;10.88;8.43;;;;;;;20.67;100.00;100079.47;4971883;28;20079;-81
2022/07/10 20:29:35;;;;;;;8.85;7.95;;;;;;;20.30;100.00;100074.59;4943863;28;20043;-81
2022/07/10 20:32:01;;;;;;;10.25;8.98;;;;;;;20.47;100.00;100140.00;4935671;29;20555;-81
2022/07/10 20:34:26;;;;;;;8.80;8.00;;;;;;;20.57;100.00;100132.91;4934567;29;20122;-82
2022/07/10 20:39:36;;;;;;;8.85;7.95;;;;;;;20.42;100.00;100090.22;4933339;29;20590;-82
2022/07/10 20:42:03;;;;;;;9.98;8.38;;;;;;;20.72;100.00;100153.75;4932887;29;20035;-80
2022/07/10 20:44:28;;;;;;;9.00;8.20;;;;;;;20.78;100.00;100153.69;4932985;29;20542;-78
2022/07/10 20:46:54;;;;;;;8.98;8.07;;;;;;;20.92;100.00;100153.59;4933421;28;20040;-81
2022/07/10 20:49:19;;;;;;;8.35;6.90;;;;;;;20.76;100.00;100103.03;4917391;29;20070;-80
2022/07/10 20:51:44;;;;;;;8.63;7.57;;;;;;;20.96;100.00;100117.66;4933523;29;20044;-81
2022/07/10 20:54:10;;;;;;;9.40;8.30;;;;;;;20.77;100.00;100080.28;4933163;29;20067;-80
2022/07/10 20:56:35;;;;;;;9.10;7.55;;;;;;;21.16;98.48;100120.91;4933229;29;20534;-80
2022/07/10 20:59:01;;;;;;;7.97;7.18;;;;;;;21.45;99.32;100166.09;4933118;28;20592;-81
2022/07/10 21:01:26;;;;;;;8.43;6.95;;;;;;;21.38;98.95;100162.66;4933082;29;20035;-81
2022/07/10 21:03:52;;;;;;;7.75;6.95;;;;;;;21.04;98.00;100109.72;4933348;29;20036;-82
2022/07/10 21:06:17;;;;;;;10.02;7.78;;;;;;;21.11;98.08;100120.13;4917098;29;20042;-81
2022/07/10 21:08:43;;;;;;;7.70;7.00;;;;;;;21.34;97.16;100146.06;4919071;29;20074;-81
2022/07/10 21:11:09;;;;;;;8.75;7.30;;;;;;;21.33;96.94;100146.09;4931059;28;20060;-84
2022/07/10 21:13:34;;;;;;;7.93;7.13;;;;;;;21.19;96.53;100134.91;4915135;29;20047;-81
2022/07/10 21:16:00;;;;;;;7.57;6.85;;;;;;;21.16;96.31;100122.69;4916727;29;20083;-80
2022/07/10 21:18:25;;;;;;;7.80;6.70;;;;;;;21.38;97.77;100161.78;4915386;29;20039;-81
2022/07/10 21:20:54;;;;;;;7.93;6.88;;;;;;;21.29;98.31;100170.66;4946890;29;20091;-80
2022/07/10 21:23:19;;;;;;;7.80;7.00;;;;;;;20.90;100.00;100167.56;4930921;29;20027;-81
2022/07/10 21:25:45;;;;;;;8.85;7.78;;;;;;;20.43;100.00;100118.16;4915145;29;20028;-82
2022/07/10 21:28:10;;;;;;;8.60;7.57;;;;;;;20.38;100.00;100114.72;4916190;29;20034;-81
2022/07/10 21:30:38;;;;;;;9.02;7.47;;;;;;;20.27;100.00;100148.03;4930994;28;20040;-81
2022/07/10 21:33:03;;;;;;;10.20;7.47;;;;;;;20.11;100.00;100160.38;4916352;29;20028;-82
2022/07/10 21:35:29;;;;;;;8.75;7.95;;;;;;;20.06;100.00;100177.88;4916038;29;20028;-81
2022/07/10 21:37:55;;;;;;;9.48;8.32;;;;;;;20.33;100.00;100189.94;4914785;29;20040;-81
2022/07/10 21:40:20;;;;;;;10.18;8.80;;;;;;;19.93;100.00;100128.19;4916147;29;20464;-80
2022/07/10 21:42:46;;;;;;;9.68;7.97;;;;;;;20.42;100.00;100186.38;4916090;29;20043;-81
2022/07/10 21:45:11;;;;;;;8.18;7.38;;;;;;;20.47;100.00;100174.97;4924904;29;20075;-81
2022/07/10 21:47:37;;;;;;;9.02;7.57;;;;;;;20.59;100.00;100166.09;4917796;29;20398;-80
2022/07/10 21:50:03;;;;;;;9.07;7.03;;;;;;;20.63;100.00;100183.53;4934793;29;20034;-81
2022/07/10 21:52:29;;;;;;;8.30;7.47;;;;;;;20.62;100.00;100176.59;4917586;29;20069;-80